sensor_id;sensor_type;location;lat;lon;timestamp;temperature;humidity
46416;DHT22;32620;51.704;7.822;2024-01-15T00:02:08;1.40;99.90
46416;DHT22;32620;51.704;7.822;2024-01-15T00:04:38;1.40;99.90
46416;DHT22;32620;51.704;7.822;2024-01-15T00:07:04;1.40;99.90
46416;DHT22;32620;51.704;7.822;2024-01-15T00:09:30;1.40;99.90
46416;DHT22;32620;51.704;7.822;2024-01-15T00:11:55;1.30;99.90
46416;DHT22;32620;51.704;7.822;2024-01-15T00:14:21;1.40;99.90
46416;DHT22;32620;51.704;7.822;2024-01-15T00:16:46;1.40;99.90
46416;DHT22;32620;51.704;7.822;2024-01-15T00:19:12;1.40;99.90
46416;DHT22;32620;51.704;7.822;2024-01-15T00:21:38;1.40;99.90
46416;DHT22;32620;51.704;7.822;2024-01-15T00:24:03;1.40;99.90
46416;DHT22;32620;51.704;7.822;2024-01-15T00:26:29;1.50;99.90
46416;DHT22;32620;51.704;7.822;2024-01-15T00:28:54;1.50;99.90
46416;DHT22;32620;51.704;7.822;2024-01-15T00:31:20;1.50;99.90
46416;DHT22;32620;51.704;7.822;2024-01-15T00:33:45;1.50;99.90
46416;DHT22;32620;51.704;7.822;2024-01-15T00:36:11;1.50;99.90
46416;DHT22;32620;51.704;7.822;2024-01-15T00:38:36;1.50;99.90
46416;DHT22;32620;51.704;7.822;2024-01-15T00:41:02;1.60;99.90
46416;DHT22;32620;51.704;7.822;2024-01-15T00:43:28;1.50;99.90
46416;DHT22;32620;51.704;7.822;2024-01-15T00:45:53;1.60;99.90
46416;DHT22;32620;51.704;7.822;2024-01-15T00:48:19;1.50;99.90
46416;DHT22;32620;51.704;7.822;2024-01-15T00:50:45;1.60;99.90
46416;DHT22;32620;51.704;7.822;2024-01-15T00:53:10;1.60;99.90
46416;DHT22;32620;51.704;7.822;2024-01-15T00:55:36;1.50;99.90
46416;DHT22;32620;51.704;7.822;2024-01-15T00:58:03;1.50;99.90
46416;DHT22;32620;51.704;7.822;2024-01-15T01:00:28;1.50;99.90
46416;DHT22;32620;51.704;7.822;2024-01-15T01:02:54;1.50;99.90
46416;DHT22;32620;51.704;7.822;2024-01-15T01:05:19;1.50;99.90
46416;DHT22;32620;51.704;7.822;2024-01-15T01:07:45;1.50;99.90
46416;DHT22;32620;51.704;7.822;2024-01-15T01:10:10;1.60;99.90
46416;DHT22;32620;51.704;7.822;2024-01-15T01:12:36;1.60;99.90
46416;DHT22;32620;51.704;7.822;2024-01-15T01:15:02;1.60;99.90
46416;DHT22;32620;51.704;7.822;2024-01-15T01:17:28;1.60;99.90
46416;DHT22;32620;51.704;7.822;2024-01-15T01:19:53;1.50;99.90
46416;DHT22;32620;51.704;7.822;2024-01-15T01:22:18;1.50;99.90
46416;DHT22;32620;51.704;7.822;2024-01-15T01:24:44;1.60;99.90
46416;DHT22;32620;51.704;7.822;2024-01-15T01:27:10;1.60;99.90
46416;DHT22;32620;51.704;7.822;2024-01-15T01:29:35;1.60;99.90
46416;DHT22;32620;51.704;7.822;2024-01-15T01:32:01;1.60;99.90
46416;DHT22;32620;51.704;7.822;2024-01-15T01:34:26;1.50;99.90
46416;DHT22;32620;51.704;7.822;2024-01-15T01:36:52;1.50;99.90
46416;DHT22;32620;51.704;7.822;2024-01-15T01:39:17;1.50;99.90
46416;DHT22;32620;51.704;7.822;2024-01-15T01:41:43;1.60;99.90
46416;DHT22;32620;51.704;7.822;2024-01-15T01:44:08;1.60;99.90
46416;DHT22;32620;51.704;7.822;2024-01-15T01:46:35;1.60;99.90
46416;DHT22;32620;51.704;7.822;2024-01-15T01:49:05;1.60;99.90
46416;DHT22;32620;51.704;7.822;2024-01-15T01:51:31;1.60;99.90
46416;DHT22;32620;51.704;7.822;2024-01-15T01:53:58;1.70;99.90
46416;DHT22;32620;51.704;7.822;2024-01-15T01:56:24;1.70;99.90
46416;DHT22;32620;51.704;7.822;2024-01-15T01:58:50;1.70;99.90
46416;DHT22;32620;51.704;7.822;2024-01-15T02:01:15;1.70;99.90
46416;DHT22;32620;51.704;7.822;2024-01-15T02:03:42;1.70;99.90
46416;DHT22;32620;51.704;7.822;2024-01-15T02:06:08;1.70;99.90
46416;DHT22;32620;51.704;7.822;2024-01-15T02:08:34;1.70;99.90
46416;DHT22;32620;51.704;7.822;2024-01-15T02:11:00;1.70;99.90
46416;DHT22;32620;51.704;7.822;2024-01-15T02:13:26;1.70;99.90
46416;DHT22;32620;51.704;7.822;2024-01-15T02:15:51;1.70;99.90
46416;DHT22;32620;51.704;7.822;2024-01-15T02:18:17;1.70;99.90
46416;DHT22;32620;51.704;7.822;2024-01-15T02:20:42;1.70;99.90
46416;DHT22;32620;51.704;7.822;2024-01-15T02:23:13;1.70;99.90
46416;DHT22;32620;51.704;7.822;2024-01-15T02:25:42;1.70;99.90
46416;DHT22;32620;51.704;7.822;2024-01-15T02:28:10;1.70;99.90
46416;DHT22;32620;51.704;7.822;2024-01-15T02:30:38;1.70;99.90
46416;DHT22;32620;51.704;7.822;2024-01-15T02:33:05;1.70;99.90
46416;DHT22;32620;51.704;7.822;2024-01-15T02:35:31;1.60;99.90
46416;DHT22;32620;51.704;7.822;2024-01-15T02:37:57;1.60;99.90
46416;DHT22;32620;51.704;7.822;2024-01-15T02:40:22;1.60;99.90
46416;DHT22;32620;51.704;7.822;2024-01-15T02:42:48;1.60;99.90
46416;DHT22;32620;51.704;7.822;2024-01-15T02:45:13;1.60;99.90
46416;DHT22;32620;51.704;7.822;2024-01-15T02:47:39;1.70;99.90
46416;DHT22;32620;51.704;7.822;2024-01-15T02:50:05;1.70;99.90
46416;DHT22;32620;51.704;7.822;2024-01-15T02:52:31;1.70;99.90
46416;DHT22;32620;51.704;7.822;2024-01-15T02:54:56;1.70;99.90
46416;DHT22;32620;51.704;7.822;2024-01-15T02:57:22;1.70;99.90
46416;DHT22;32620;51.704;7.822;2024-01-15T02:59:47;1.60;99.90
46416;DHT22;32620;51.704;7.822;2024-01-15T03:02:13;1.60;99.90
46416;DHT22;32620;51.704;7.822;2024-01-15T03:04:43;1.60;99.90
46416;DHT22;32620;51.704;7.822;2024-01-15T03:07:08;1.60;99.90
46416;DHT22;32620;51.704;7.822;2024-01-15T03:09:34;1.50;99.90
46416;DHT22;32620;51.704;7.822;2024-01-15T03:11:59;1.50;99.90
46416;DHT22;32620;51.704;7.822;2024-01-15T03:14:25;1.50;99.90
46416;DHT22;32620;51.704;7.822;2024-01-15T03:16:52;1.50;99.90
46416;DHT22;32620;51.704;7.822;2024-01-15T03:19:17;1.50;99.90
46416;DHT22;32620;51.704;7.822;2024-01-15T03:21:42;1.50;99.90
46416;DHT22;32620;51.704;7.822;2024-01-15T03:24:08;1.50;99.90
46416;DHT22;32620;51.704;7.822;2024-01-15T03:26:33;1.50;99.90
46416;DHT22;32620;51.704;7.822;2024-01-15T03:28:59;1.50;99.90
46416;DHT22;32620;51.704;7.822;2024-01-15T03:31:24;1.60;99.90
46416;DHT22;32620;51.704;7.822;2024-01-15T03:33:50;1.60;99.90
46416;DHT22;32620;51.704;7.822;2024-01-15T03:36:16;1.60;99.90
46416;DHT22;32620;51.704;7.822;2024-01-15T03:38:42;1.60;99.90
46416;DHT22;32620;51.704;7.822;2024-01-15T03:41:07;1.60;99.90
46416;DHT22;32620;51.704;7.822;2024-01-15T03:43:33;1.60;99.90
46416;DHT22;32620;51.704;7.822;2024-01-15T03:45:59;1.60;99.90
46416;DHT22;32620;51.704;7.822;2024-01-15T03:48:24;1.60;99.90
46416;DHT22;32620;51.704;7.822;2024-01-15T03:50:50;1.60;99.90
46416;DHT22;32620;51.704;7.822;2024-01-15T03:53:15;1.60;99.90
46416;DHT22;32620;51.704;7.822;2024-01-15T03:55:42;1.60;99.90
46416;DHT22;32620;51.704;7.822;2024-01-15T03:58:08;1.50;99.90
46416;DHT22;32620;51.704;7.822;2024-01-15T04:00:33;1.50;99.90
46416;DHT22;32620;51.704;7.822;2024-01-15T04:02:59;1.60;99.90
46416;DHT22;32620;51.704;7.822;2024-01-15T04:05:25;1.50;99.90
46416;DHT22;32620;51.704;7.822;2024-01-15T04:07:51;1.40;99.90
46416;DHT22;32620;51.704;7.822;2024-01-15T04:10:16;1.40;99.90
46416;DHT22;32620;51.704;7.822;2024-01-15T04:12:42;1.40;99.90
46416;DHT22;32620;51.704;7.822;2024-01-15T04:15:07;1.40;99.90
46416;DHT22;32620;51.704;7.822;2024-01-15T04:17:33;1.40;99.90
46416;DHT22;32620;51.704;7.822;2024-01-15T04:19:59;1.40;99.90
46416;DHT22;32620;51.704;7.822;2024-01-15T04:22:25;1.40;99.90
46416;DHT22;32620;51.704;7.822;2024-01-15T04:24:50;1.40;99.90
46416;DHT22;32620;51.704;7.822;2024-01-15T04:27:16;1.40;99.90
46416;DHT22;32620;51.704;7.822;2024-01-15T04:29:41;1.40;99.90
46416;DHT22;32620;51.704;7.822;2024-01-15T04:32:07;1.40;99.90
46416;DHT22;32620;51.704;7.822;2024-01-15T04:34:33;1.50;99.90
46416;DHT22;32620;51.704;7.822;2024-01-15T04:36:58;1.50;99.90
46416;DHT22;32620;51.704;7.822;2024-01-15T04:39:24;1.40;99.90
46416;DHT22;32620;51.704;7.822;2024-01-15T04:41:49;1.50;99.90
46416;DHT22;32620;51.704;7.822;2024-01-15T04:44:15;1.40;99.90
46416;DHT22;32620;51.704;7.822;2024-01-15T04:46:41;1.50;99.90
46416;DHT22;32620;51.704;7.822;2024-01-15T04:49:07;1.60;99.90
46416;DHT22;32620;51.704;7.822;2024-01-15T04:51:32;1.60;99.90
46416;DHT22;32620;51.704;7.822;2024-01-15T04:53:57;1.60;99.90
46416;DHT22;32620;51.704;7.822;2024-01-15T04:56:23;1.60;99.90
46416;DHT22;32620;51.704;7.822;2024-01-15T04:58:48;1.60;99.90
46416;DHT22;32620;51.704;7.822;2024-01-15T05:01:16;1.60;99.90
46416;DHT22;32620;51.704;7.822;2024-01-15T05:03:41;1.60;99.90
46416;DHT22;32620;51.704;7.822;2024-01-15T05:06:07;1.60;99.90
46416;DHT22;32620;51.704;7.822;2024-01-15T05:08:32;1.70;99.90
46416;DHT22;32620;51.704;7.822;2024-01-15T05:10:58;1.70;99.90
46416;DHT22;32620;51.704;7.822;2024-01-15T05:13:23;1.70;99.90
46416;DHT22;32620;51.704;7.822;2024-01-15T05:15:49;1.70;99.90
46416;DHT22;32620;51.704;7.822;2024-01-15T05:18:15;1.70;99.90
46416;DHT22;32620;51.704;7.822;2024-01-15T05:20:40;1.70;99.90
46416;DHT22;32620;51.704;7.822;2024-01-15T05:23:06;1.70;99.90
46416;DHT22;32620;51.704;7.822;2024-01-15T05:25:31;1.70;99.90
46416;DHT22;32620;51.704;7.822;2024-01-15T05:27:57;1.70;99.90
46416;DHT22;32620;51.704;7.822;2024-01-15T05:30:23;1.70;99.90
46416;DHT22;32620;51.704;7.822;2024-01-15T05:32:48;1.70;99.90
46416;DHT22;32620;51.704;7.822;2024-01-15T05:35:14;1.80;99.90
46416;DHT22;32620;51.704;7.822;2024-01-15T05:37:44;1.70;99.90
46416;DHT22;32620;51.704;7.822;2024-01-15T05:40:11;1.70;99.90
46416;DHT22;32620;51.704;7.822;2024-01-15T05:42:36;1.70;99.90
46416;DHT22;32620;51.704;7.822;2024-01-15T05:45:02;1.80;99.90
46416;DHT22;32620;51.704;7.822;2024-01-15T05:47:30;1.80;99.90
46416;DHT22;32620;51.704;7.822;2024-01-15T05:49:56;1.70;99.90
46416;DHT22;32620;51.704;7.822;2024-01-15T05:52:22;1.70;99.90
46416;DHT22;32620;51.704;7.822;2024-01-15T05:54:49;1.80;99.90
46416;DHT22;32620;51.704;7.822;2024-01-15T05:57:15;1.80;99.90
46416;DHT22;32620;51.704;7.822;2024-01-15T05:59:40;1.80;99.90
46416;DHT22;32620;51.704;7.822;2024-01-15T06:02:06;1.80;99.90
46416;DHT22;32620;51.704;7.822;2024-01-15T06:04:31;1.80;99.90
46416;DHT22;32620;51.704;7.822;2024-01-15T06:06:57;1.80;99.90
46416;DHT22;32620;51.704;7.822;2024-01-15T06:09:22;1.90;99.90
46416;DHT22;32620;51.704;7.822;2024-01-15T06:11:48;1.90;99.90
46416;DHT22;32620;51.704;7.822;2024-01-15T06:14:13;1.80;99.90
46416;DHT22;32620;51.704;7.822;2024-01-15T06:16:39;1.90;99.90
46416;DHT22;32620;51.704;7.822;2024-01-15T06:19:05;1.80;99.90
46416;DHT22;32620;51.704;7.822;2024-01-15T06:21:30;1.80;99.90
46416;DHT22;32620;51.704;7.822;2024-01-15T06:23:56;1.80;99.90
46416;DHT22;32620;51.704;7.822;2024-01-15T06:26:22;1.80;99.90
46416;DHT22;32620;51.704;7.822;2024-01-15T06:28:48;1.90;99.90
46416;DHT22;32620;51.704;7.822;2024-01-15T06:31:13;1.80;99.90
46416;DHT22;32620;51.704;7.822;2024-01-15T06:33:39;1.90;99.90
46416;DHT22;32620;51.704;7.822;2024-01-15T06:36:05;1.80;99.90
46416;DHT22;32620;51.704;7.822;2024-01-15T06:38:31;1.90;99.90
46416;DHT22;32620;51.704;7.822;2024-01-15T06:40:56;1.90;99.90
46416;DHT22;32620;51.704;7.822;2024-01-15T06:43:22;1.90;99.90
46416;DHT22;32620;51.704;7.822;2024-01-15T06:45:47;1.90;99.90
46416;DHT22;32620;51.704;7.822;2024-01-15T06:48:13;1.90;99.90
46416;DHT22;32620;51.704;7.822;2024-01-15T06:50:42;1.90;99.90
46416;DHT22;32620;51.704;7.822;2024-01-15T06:53:07;1.90;99.90
46416;DHT22;32620;51.704;7.822;2024-01-15T06:55:33;1.90;99.90
46416;DHT22;32620;51.704;7.822;2024-01-15T06:57:58;1.90;99.90
46416;DHT22;32620;51.704;7.822;2024-01-15T07:00:24;1.90;99.90
46416;DHT22;32620;51.704;7.822;2024-01-15T07:02:50;1.90;99.90
46416;DHT22;32620;51.704;7.822;2024-01-15T07:05:15;2.00;99.90
46416;DHT22;32620;51.704;7.822;2024-01-15T07:07:41;1.90;99.90
46416;DHT22;32620;51.704;7.822;2024-01-15T07:10:07;1.90;99.90
46416;DHT22;32620;51.704;7.822;2024-01-15T07:12:32;1.90;99.90
46416;DHT22;32620;51.704;7.822;2024-01-15T07:15:00;1.80;99.90
46416;DHT22;32620;51.704;7.822;2024-01-15T07:17:25;1.70;99.90
46416;DHT22;32620;51.704;7.822;2024-01-15T07:19:51;1.50;99.90
46416;DHT22;32620;51.704;7.822;2024-01-15T07:22:16;1.40;99.90
46416;DHT22;32620;51.704;7.822;2024-01-15T07:24:43;1.30;99.90
46416;DHT22;32620;51.704;7.822;2024-01-15T07:27:08;1.30;99.90
46416;DHT22;32620;51.704;7.822;2024-01-15T07:29:34;1.20;99.90
46416;DHT22;32620;51.704;7.822;2024-01-15T07:32:03;1.30;99.90
46416;DHT22;32620;51.704;7.822;2024-01-15T07:34:29;1.30;99.90
46416;DHT22;32620;51.704;7.822;2024-01-15T07:36:54;1.30;99.90
46416;DHT22;32620;51.704;7.822;2024-01-15T07:39:20;1.40;99.90
46416;DHT22;32620;51.704;7.822;2024-01-15T07:41:45;1.30;99.90
46416;DHT22;32620;51.704;7.822;2024-01-15T07:44:11;1.40;99.90
46416;DHT22;32620;51.704;7.822;2024-01-15T07:46:36;1.40;99.90
46416;DHT22;32620;51.704;7.822;2024-01-15T07:49:02;1.40;99.90
46416;DHT22;32620;51.704;7.822;2024-01-15T07:51:28;1.40;99.90
46416;DHT22;32620;51.704;7.822;2024-01-15T07:53:54;1.30;99.90
46416;DHT22;32620;51.704;7.822;2024-01-15T07:56:21;1.30;99.90
46416;DHT22;32620;51.704;7.822;2024-01-15T07:58:47;1.40;99.90
46416;DHT22;32620;51.704;7.822;2024-01-15T08:01:12;1.40;99.90
46416;DHT22;32620;51.704;7.822;2024-01-15T08:03:38;1.40;99.90
46416;DHT22;32620;51.704;7.822;2024-01-15T08:06:05;1.50;99.90
46416;DHT22;32620;51.704;7.822;2024-01-15T08:08:30;1.50;99.90
46416;DHT22;32620;51.704;7.822;2024-01-15T08:10:56;1.60;99.90
46416;DHT22;32620;51.704;7.822;2024-01-15T08:13:21;1.50;99.90
46416;DHT22;32620;51.704;7.822;2024-01-15T08:15:47;1.60;99.90
46416;DHT22;32620;51.704;7.822;2024-01-15T08:18:13;1.50;99.90
46416;DHT22;32620;51.704;7.822;2024-01-15T08:20:39;1.50;99.90
46416;DHT22;32620;51.704;7.822;2024-01-15T08:23:05;1.50;99.90
46416;DHT22;32620;51.704;7.822;2024-01-15T08:25:30;1.40;99.90
46416;DHT22;32620;51.704;7.822;2024-01-15T08:27:56;1.40;99.90
46416;DHT22;32620;51.704;7.822;2024-01-15T08:30:23;1.40;99.90
46416;DHT22;32620;51.704;7.822;2024-01-15T08:32:54;1.40;99.90
46416;DHT22;32620;51.704;7.822;2024-01-15T08:35:19;1.40;99.90
46416;DHT22;32620;51.704;7.822;2024-01-15T08:37:49;1.40;99.90
46416;DHT22;32620;51.704;7.822;2024-01-15T08:40:15;1.30;99.90
46416;DHT22;32620;51.704;7.822;2024-01-15T08:42:41;1.30;99.90
46416;DHT22;32620;51.704;7.822;2024-01-15T08:45:07;1.30;99.90
46416;DHT22;32620;51.704;7.822;2024-01-15T08:47:33;1.30;99.90
46416;DHT22;32620;51.704;7.822;2024-01-15T08:49:58;1.20;99.90
46416;DHT22;32620;51.704;7.822;2024-01-15T08:52:24;1.30;99.90
46416;DHT22;32620;51.704;7.822;2024-01-15T08:54:50;1.30;99.90
46416;DHT22;32620;51.704;7.822;2024-01-15T08:57:16;1.30;99.90
46416;DHT22;32620;51.704;7.822;2024-01-15T08:59:41;1.30;99.90
46416;DHT22;32620;51.704;7.822;2024-01-15T09:02:07;1.30;99.90
46416;DHT22;32620;51.704;7.822;2024-01-15T09:04:33;1.40;99.90
46416;DHT22;32620;51.704;7.822;2024-01-15T09:06:58;1.40;99.90
46416;DHT22;32620;51.704;7.822;2024-01-15T09:09:24;1.50;99.90
46416;DHT22;32620;51.704;7.822;2024-01-15T09:11:51;1.50;99.90
46416;DHT22;32620;51.704;7.822;2024-01-15T09:14:16;1.50;99.90
46416;DHT22;32620;51.704;7.822;2024-01-15T09:16:42;1.60;99.90
46416;DHT22;32620;51.704;7.822;2024-01-15T09:19:08;1.50;99.90
46416;DHT22;32620;51.704;7.822;2024-01-15T09:21:33;1.70;99.90
46416;DHT22;32620;51.704;7.822;2024-01-15T09:23:59;1.80;99.90
46416;DHT22;32620;51.704;7.822;2024-01-15T09:26:24;1.80;99.90
46416;DHT22;32620;51.704;7.822;2024-01-15T09:28:50;1.70;99.90
46416;DHT22;32620;51.704;7.822;2024-01-15T09:31:15;1.80;99.90
46416;DHT22;32620;51.704;7.822;2024-01-15T09:33:43;1.80;99.90
46416;DHT22;32620;51.704;7.822;2024-01-15T09:36:08;1.80;99.90
46416;DHT22;32620;51.704;7.822;2024-01-15T09:38:34;1.80;99.90
46416;DHT22;32620;51.704;7.822;2024-01-15T09:41:00;1.80;99.90
46416;DHT22;32620;51.704;7.822;2024-01-15T09:43:26;1.80;99.90
46416;DHT22;32620;51.704;7.822;2024-01-15T09:45:52;1.80;99.90
46416;DHT22;32620;51.704;7.822;2024-01-15T09:48:18;1.80;99.90
46416;DHT22;32620;51.704;7.822;2024-01-15T09:50:44;1.80;99.90
46416;DHT22;32620;51.704;7.822;2024-01-15T09:53:09;1.80;99.90
46416;DHT22;32620;51.704;7.822;2024-01-15T09:55:36;1.80;99.90
46416;DHT22;32620;51.704;7.822;2024-01-15T09:58:03;1.80;99.90
46416;DHT22;32620;51.704;7.822;2024-01-15T10:00:29;1.80;99.90
46416;DHT22;32620;51.704;7.822;2024-01-15T10:02:57;1.80;99.90
46416;DHT22;32620;51.704;7.822;2024-01-15T10:05:22;1.80;99.90
46416;DHT22;32620;51.704;7.822;2024-01-15T10:07:48;1.80;99.90
46416;DHT22;32620;51.704;7.822;2024-01-15T10:10:15;1.80;99.90
46416;DHT22;32620;51.704;7.822;2024-01-15T10:12:42;1.80;99.90
46416;DHT22;32620;51.704;7.822;2024-01-15T10:15:10;1.90;99.90
46416;DHT22;32620;51.704;7.822;2024-01-15T10:17:38;1.90;99.90
46416;DHT22;32620;51.704;7.822;2024-01-15T10:20:08;1.90;99.90
46416;DHT22;32620;51.704;7.822;2024-01-15T10:22:35;1.90;99.90
46416;DHT22;32620;51.704;7.822;2024-01-15T10:25:03;1.90;99.90
46416;DHT22;32620;51.704;7.822;2024-01-15T10:27:29;1.90;99.90
46416;DHT22;32620;51.704;7.822;2024-01-15T10:29:59;2.00;99.90
46416;DHT22;32620;51.704;7.822;2024-01-15T10:32:25;2.00;99.90
46416;DHT22;32620;51.704;7.822;2024-01-15T10:34:52;1.90;99.90
46416;DHT22;32620;51.704;7.822;2024-01-15T10:37:18;2.00;99.90
46416;DHT22;32620;51.704;7.822;2024-01-15T10:39:43;1.90;99.90
46416;DHT22;32620;51.704;7.822;2024-01-15T10:42:11;1.90;99.90
46416;DHT22;32620;51.704;7.822;2024-01-15T10:44:36;1.90;99.90
46416;DHT22;32620;51.704;7.822;2024-01-15T10:47:02;1.90;99.90
46416;DHT22;32620;51.704;7.822;2024-01-15T10:49:29;1.90;99.90
46416;DHT22;32620;51.704;7.822;2024-01-15T10:51:56;2.00;99.90
46416;DHT22;32620;51.704;7.822;2024-01-15T10:54:23;2.10;99.90
46416;DHT22;32620;51.704;7.822;2024-01-15T10:56:50;2.20;99.90
46416;DHT22;32620;51.704;7.822;2024-01-15T10:59:18;2.30;99.90
46416;DHT22;32620;51.704;7.822;2024-01-15T11:01:45;2.30;99.90
46416;DHT22;32620;51.704;7.822;2024-01-15T11:04:12;2.30;99.90
46416;DHT22;32620;51.704;7.822;2024-01-15T11:06:43;2.40;99.90
46416;DHT22;32620;51.704;7.822;2024-01-15T11:09:08;2.30;99.90
46416;DHT22;32620;51.704;7.822;2024-01-15T11:11:35;2.20;99.90
46416;DHT22;32620;51.704;7.822;2024-01-15T11:14:02;2.10;99.90
46416;DHT22;32620;51.704;7.822;2024-01-15T11:16:55;2.10;99.90
46416;DHT22;32620;51.704;7.822;2024-01-15T11:19:22;2.10;99.90
46416;DHT22;32620;51.704;7.822;2024-01-15T11:21:47;2.10;99.90
46416;DHT22;32620;51.704;7.822;2024-01-15T11:24:36;2.20;99.90
46416;DHT22;32620;51.704;7.822;2024-01-15T11:27:02;2.10;99.90
46416;DHT22;32620;51.704;7.822;2024-01-15T11:32:07;2.20;99.90
46416;DHT22;32620;51.704;7.822;2024-01-15T11:34:56;2.40;99.90
46416;DHT22;32620;51.704;7.822;2024-01-15T11:37:24;2.60;99.90
46416;DHT22;32620;51.704;7.822;2024-01-15T11:42:21;2.70;99.90
46416;DHT22;32620;51.704;7.822;2024-01-15T11:44:47;2.70;99.90
46416;DHT22;32620;51.704;7.822;2024-01-15T11:47:13;2.60;99.90
46416;DHT22;32620;51.704;7.822;2024-01-15T11:49:59;2.50;99.90
46416;DHT22;32620;51.704;7.822;2024-01-15T11:52:26;2.50;99.90
46416;DHT22;32620;51.704;7.822;2024-01-15T11:55:07;2.40;99.90
46416;DHT22;32620;51.704;7.822;2024-01-15T11:57:52;2.50;99.90
46416;DHT22;32620;51.704;7.822;2024-01-15T12:00:20;2.20;99.90
46416;DHT22;32620;51.704;7.822;2024-01-15T12:02:47;2.20;99.90
46416;DHT22;32620;51.704;7.822;2024-01-15T12:05:14;2.10;99.90
46416;DHT22;32620;51.704;7.822;2024-01-15T12:07:41;2.20;99.90
46416;DHT22;32620;51.704;7.822;2024-01-15T12:10:10;2.30;99.90
46416;DHT22;32620;51.704;7.822;2024-01-15T12:13:00;2.20;99.90
46416;DHT22;32620;51.704;7.822;2024-01-15T12:15:28;2.10;99.90
46416;DHT22;32620;51.704;7.822;2024-01-15T12:17:56;2.10;99.90
46416;DHT22;32620;51.704;7.822;2024-01-15T12:20:24;2.10;99.90
46416;DHT22;32620;51.704;7.822;2024-01-15T12:22:50;2.20;99.90
46416;DHT22;32620;51.704;7.822;2024-01-15T12:25:15;2.20;99.90
46416;DHT22;32620;51.704;7.822;2024-01-15T12:27:41;2.20;99.90
46416;DHT22;32620;51.704;7.822;2024-01-15T12:30:07;2.20;99.90
46416;DHT22;32620;51.704;7.822;2024-01-15T12:32:32;2.30;99.90
46416;DHT22;32620;51.704;7.822;2024-01-15T12:35:00;2.30;99.90
46416;DHT22;32620;51.704;7.822;2024-01-15T12:37:26;2.30;99.90
46416;DHT22;32620;51.704;7.822;2024-01-15T12:39:52;2.40;99.90
46416;DHT22;32620;51.704;7.822;2024-01-15T12:42:21;2.40;99.90
46416;DHT22;32620;51.704;7.822;2024-01-15T12:44:46;2.40;99.90
46416;DHT22;32620;51.704;7.822;2024-01-15T12:47:12;2.50;99.90
46416;DHT22;32620;51.704;7.822;2024-01-15T12:49:39;2.40;99.90
46416;DHT22;32620;51.704;7.822;2024-01-15T12:52:08;2.40;99.90
46416;DHT22;32620;51.704;7.822;2024-01-15T12:54:34;2.40;99.90
46416;DHT22;32620;51.704;7.822;2024-01-15T12:57:00;2.40;99.90
46416;DHT22;32620;51.704;7.822;2024-01-15T12:59:25;2.30;99.90
46416;DHT22;32620;51.704;7.822;2024-01-15T13:01:51;2.30;99.90
46416;DHT22;32620;51.704;7.822;2024-01-15T13:04:24;2.30;99.90
46416;DHT22;32620;51.704;7.822;2024-01-15T13:06:50;2.30;99.90
46416;DHT22;32620;51.704;7.822;2024-01-15T13:09:16;2.30;99.90
46416;DHT22;32620;51.704;7.822;2024-01-15T13:11:45;2.30;99.90
46416;DHT22;32620;51.704;7.822;2024-01-15T13:14:12;2.40;99.90
46416;DHT22;32620;51.704;7.822;2024-01-15T13:16:40;2.40;99.90
46416;DHT22;32620;51.704;7.822;2024-01-15T13:19:09;2.40;99.90
46416;DHT22;32620;51.704;7.822;2024-01-15T13:21:37;2.40;99.90
46416;DHT22;32620;51.704;7.822;2024-01-15T13:24:02;2.30;99.90
46416;DHT22;32620;51.704;7.822;2024-01-15T13:26:31;2.30;99.90
46416;DHT22;32620;51.704;7.822;2024-01-15T13:28:57;2.20;99.90
46416;DHT22;32620;51.704;7.822;2024-01-15T13:31:22;2.20;99.90
46416;DHT22;32620;51.704;7.822;2024-01-15T13:33:48;2.20;99.90
46416;DHT22;32620;51.704;7.822;2024-01-15T13:36:13;2.20;99.90
46416;DHT22;32620;51.704;7.822;2024-01-15T13:38:39;2.10;99.90
46416;DHT22;32620;51.704;7.822;2024-01-15T13:41:05;2.20;99.90
46416;DHT22;32620;51.704;7.822;2024-01-15T13:43:32;2.20;99.90
46416;DHT22;32620;51.704;7.822;2024-01-15T13:45:58;2.20;99.90
46416;DHT22;32620;51.704;7.822;2024-01-15T13:48:24;2.20;99.90
46416;DHT22;32620;51.704;7.822;2024-01-15T13:50:49;2.20;99.90
46416;DHT22;32620;51.704;7.822;2024-01-15T13:53:16;2.30;99.90
46416;DHT22;32620;51.704;7.822;2024-01-15T13:55:42;2.40;99.90
46416;DHT22;32620;51.704;7.822;2024-01-15T13:58:07;2.50;99.90
46416;DHT22;32620;51.704;7.822;2024-01-15T14:00:33;2.60;99.90
46416;DHT22;32620;51.704;7.822;2024-01-15T14:02:58;2.50;99.90
46416;DHT22;32620;51.704;7.822;2024-01-15T14:05:24;2.50;99.90
46416;DHT22;32620;51.704;7.822;2024-01-15T14:07:50;2.50;99.90
46416;DHT22;32620;51.704;7.822;2024-01-15T14:10:15;2.50;99.90
46416;DHT22;32620;51.704;7.822;2024-01-15T14:12:41;2.50;99.90
46416;DHT22;32620;51.704;7.822;2024-01-15T14:15:07;2.50;99.90
46416;DHT22;32620;51.704;7.822;2024-01-15T14:17:32;2.50;99.90
46416;DHT22;32620;51.704;7.822;2024-01-15T14:19:58;2.40;99.90
46416;DHT22;32620;51.704;7.822;2024-01-15T14:22:24;2.40;99.90
46416;DHT22;32620;51.704;7.822;2024-01-15T14:24:50;2.30;99.90
46416;DHT22;32620;51.704;7.822;2024-01-15T14:27:16;2.30;99.90
46416;DHT22;32620;51.704;7.822;2024-01-15T14:29:42;2.30;99.90
46416;DHT22;32620;51.704;7.822;2024-01-15T14:32:07;2.30;99.90
46416;DHT22;32620;51.704;7.822;2024-01-15T14:34:33;2.30;99.90
46416;DHT22;32620;51.704;7.822;2024-01-15T14:37:01;2.20;99.90
46416;DHT22;32620;51.704;7.822;2024-01-15T14:39:27;2.30;99.90
46416;DHT22;32620;51.704;7.822;2024-01-15T14:41:52;2.20;99.90
46416;DHT22;32620;51.704;7.822;2024-01-15T14:44:18;2.20;99.90
46416;DHT22;32620;51.704;7.822;2024-01-15T14:46:44;2.30;99.90
46416;DHT22;32620;51.704;7.822;2024-01-15T14:49:09;2.40;99.90
46416;DHT22;32620;51.704;7.822;2024-01-15T14:51:34;2.40;99.90
46416;DHT22;32620;51.704;7.822;2024-01-15T14:54:00;2.40;99.90
46416;DHT22;32620;51.704;7.822;2024-01-15T14:56:26;2.30;99.90
46416;DHT22;32620;51.704;7.822;2024-01-15T14:58:51;2.30;99.90
46416;DHT22;32620;51.704;7.822;2024-01-15T15:01:17;2.30;99.90
46416;DHT22;32620;51.704;7.822;2024-01-15T15:03:42;2.30;99.90
46416;DHT22;32620;51.704;7.822;2024-01-15T15:06:09;2.20;99.90
46416;DHT22;32620;51.704;7.822;2024-01-15T15:08:35;2.20;99.90
46416;DHT22;32620;51.704;7.822;2024-01-15T15:11:01;2.10;99.90
46416;DHT22;32620;51.704;7.822;2024-01-15T15:13:27;2.00;99.90
46416;DHT22;32620;51.704;7.822;2024-01-15T15:15:53;1.90;99.90
46416;DHT22;32620;51.704;7.822;2024-01-15T15:18:20;1.90;99.90
46416;DHT22;32620;51.704;7.822;2024-01-15T15:20:47;1.80;99.90
46416;DHT22;32620;51.704;7.822;2024-01-15T15:23:13;1.80;99.90
46416;DHT22;32620;51.704;7.822;2024-01-15T15:25:38;1.80;99.90
46416;DHT22;32620;51.704;7.822;2024-01-15T15:28:04;1.70;99.90
46416;DHT22;32620;51.704;7.822;2024-01-15T15:30:30;1.70;99.90
46416;DHT22;32620;51.704;7.822;2024-01-15T15:32:56;1.60;99.90
46416;DHT22;32620;51.704;7.822;2024-01-15T15:35:22;1.60;99.90
46416;DHT22;32620;51.704;7.822;2024-01-15T15:37:47;1.60;99.90
46416;DHT22;32620;51.704;7.822;2024-01-15T15:40:13;1.60;99.90
46416;DHT22;32620;51.704;7.822;2024-01-15T15:42:39;1.60;99.90
46416;DHT22;32620;51.704;7.822;2024-01-15T15:45:05;1.60;99.90